F/V Le Natif 2 — FKVW — position and weather

sailwx.info

Track history (hours):
 
Tides and Currents Weather Stations Pressure Air Temp Water Temp Dewpoint Dewpoint Depression Visibility Wind Speed Wind Dir Waves Ship Positions

F/V Le Natif 2

Last reported at 2017-Nov-23 05:30 UTC. Time now 2017-Nov-23 20:47 UTC.
Position N 46°42' W 001°57'.

Length 16 m.

Type: Fishing. MMSI: 228131600.

Date/timePositionNaut miles runAvg speedWind from/ knotsBaromVisibWave heightAir tempDewpointWater temp
2017-Nov-23 05:30N 46°42' W 001°57'0 0.0
2017-Nov-23 05:00N 46°42' W 001°57'0 0.2
2017-Nov-23 04:29N 46°42' W 001°57'0 0.0
2017-Nov-23 03:57N 46°42' W 001°56'1 1.1
2017-Nov-23 03:30N 46°42' W 001°57'4 8.7
2017-Nov-23 03:00N 46°38' W 002°01'5 9.2
2017-Nov-23 02:31N 46°35' W 002°06'5 9.2
2017-Nov-23 02:00N 46°31' W 002°10'5 9.5
2017-Nov-23 01:30N 46°28' W 002°15'5 9.4
2017-Nov-23 00:57N 46°24' W 002°20'13 3.2
2017-Nov-22 20:47N 46°13' W 002°32'1 3.3
2017-Nov-22 20:30N 46°13' W 002°33'4 3.7
2017-Nov-22 19:20N 46°17' W 002°31'  
2017-Nov-20 00:30N 46°28' W 002°16'5 0.5
2017-Nov-19 13:10N 46°33' W 002°18'1 3.4
2017-Nov-19 12:57N 46°33' W 002°18'2 3.2
2017-Nov-19 12:26N 46°31' W 002°17'1 3.1
2017-Nov-19 12:00N 46°30' W 002°16'1 1.6
2017-Nov-19 11:30N 46°30' W 002°18'2 3.3
2017-Nov-19 10:59N 46°28' W 002°19'6 1.4
2017-Nov-19 07:01N 46°34' W 002°22'0 3.4
2017-Nov-19 06:55N 46°34' W 002°22'1 3.4
2017-Nov-19 06:30N 46°35' W 002°21'2 3.4
2017-Nov-19 06:00N 46°36' W 002°19'2 3.7
2017-Nov-19 05:30N 46°36' W 002°16'4 8.0
2017-Nov-19 05:00N 46°38' W 002°11'4 8.6
2017-Nov-19 04:30N 46°39' W 002°05'4 8.6
2017-Nov-19 04:00N 46°41' W 001°59'2 3.6
2017-Nov-19 03:28N 46°42' W 001°57'0 0.0
2017-Nov-17 18:07N 46°42' W 001°57'0 0.0
2017-Nov-17 18:00N 46°42' W 001°57'0 0.0
2017-Nov-17 17:30N 46°42' W 001°57'0 0.0
2017-Nov-17 17:00N 46°42' W 001°57'0 0.0
2017-Nov-17 16:30N 46°42' W 001°57'0 0.0
2017-Nov-17 16:00N 46°42' W 001°57'0 0.0
2017-Nov-17 15:02N 46°42' W 001°57'0 0.2
2017-Nov-17 15:00N 46°42' W 001°57'0 0.0
2017-Nov-17 14:29N 46°42' W 001°57'0 0.0
2017-Nov-17 14:00N 46°42' W 001°57'0 0.0
2017-Nov-17 12:14N 46°42' W 001°57'0 0.0
2017-Nov-17 11:59N 46°42' W 001°57'0 0.0
2017-Nov-17 11:30N 46°42' W 001°57'0 0.0
2017-Nov-17 11:00N 46°42' W 001°57'0 0.0
2017-Nov-17 10:30N 46°42' W 001°57'0 0.0
2017-Nov-17 10:00N 46°42' W 001°57'0 0.0
2017-Nov-17 05:29N 46°42' W 001°57'0 0.0
2017-Nov-17 05:00N 46°42' W 001°57'0 0.0
2017-Nov-17 04:30N 46°42' W 001°57'0 0.0
2017-Nov-17 04:00N 46°42' W 001°57'0 0.0
2017-Nov-17 03:30N 46°42' W 001°57'0 0.2
2017-Nov-17 03:00N 46°42' W 001°57'4 7.7
2017-Nov-17 02:30N 46°39' W 002°01'4 8.8
2017-Nov-17 02:00N 46°37' W 002°06'5 9.3
2017-Nov-17 01:30N 46°34' W 002°11'4 8.4
2017-Nov-17 01:00N 46°31' W 002°16'4 8.9
2017-Nov-17 00:30N 46°28' W 002°21'4 8.9
2017-Nov-17 00:00N 46°26' W 002°26'5 9.0
2017-Nov-16 23:30N 46°23' W 002°31'4 8.6
2017-Nov-16 23:00N 46°20' W 002°36'1 1.8
2017-Nov-16 22:20N 46°19' W 002°36'1 4.4
2017-Nov-16 22:00N 46°17' W 002°36'1 0.8
2017-Nov-16 20:48N 46°17' W 002°37'1 3.0
2017-Nov-16 20:30N 46°17' W 002°36'1 0.6
2017-Nov-16 19:20N 46°17' W 002°37'2 5.3
2017-Nov-16 18:54N 46°18' W 002°34'4 9.3
2017-Nov-16 18:30N 46°21' W 002°30'3 6.6
2017-Nov-16 18:00N 46°23' W 002°26'1 2.2
2017-Nov-16 17:24N 46°22' W 002°25'1 3.3
2017-Nov-16 17:00N 46°21' W 002°24'2 3.2
2017-Nov-16 16:19N 46°19' W 002°21'1 3.2
2017-Nov-16 16:00N 46°18' W 002°21'2 3.2
2017-Nov-16 15:30N 46°17' W 002°19'2 3.2
2017-Nov-16 14:59N 46°15' W 002°18'5 3.0
2017-Nov-16 13:28N 46°11' W 002°18'2 3.6
2017-Nov-16 12:59N 46°09' W 002°18'1 2.4
2017-Nov-16 12:30N 46°08' W 002°18'0 0.4
2017-Nov-16 11:59N 46°08' W 002°18'3 2.2
2017-Nov-16 10:47N 46°11' W 002°18'2 2.9
2017-Nov-16 10:10N 46°12' W 002°17'1 3.0
2017-Nov-16 09:47N 46°14' W 002°17'1 3.1
2017-Nov-16 09:30N 46°15' W 002°17'2 3.1
2017-Nov-16 08:44N 46°17' W 002°19'1 2.9
2017-Nov-16 08:13N 46°18' W 002°19'1 3.1
2017-Nov-16 08:00N 46°19' W 002°19'2 3.2
2017-Nov-16 07:30N 46°20' W 002°18'2 3.4
2017-Nov-16 07:00N 46°22' W 002°17'2 3.6
2017-Nov-16 06:29N 46°23' W 002°16'4 7.2
2017-Nov-16 05:56N 46°27' W 002°12'4 8.9
2017-Nov-16 05:30N 46°30' W 002°09'4 8.9
2017-Nov-16 05:00N 46°34' W 002°06'4 8.7
2017-Nov-16 04:30N 46°37' W 002°02'4 8.3
2017-Nov-16 04:00N 46°40' W 001°59'2 3.8
2017-Nov-16 03:30N 46°42' W 001°56'1 2.2
2017-Nov-16 03:00N 46°41' W 001°58'4 9.0
2017-Nov-16 02:30N 46°38' W 002°02'510.0
2017-Nov-16 02:00N 46°34' W 002°06'4 7.7
2017-Nov-16 01:30N 46°31' W 002°10'4 8.7
2017-Nov-16 01:00N 46°27' W 002°14'4 8.8
2017-Nov-16 00:30N 46°24' W 002°18'4 8.8
2017-Nov-16 00:00N 46°21' W 002°22'8 8.8
2017-Nov-15 23:09N 46°15' W 002°29'1 4.5
2017-Nov-15 23:00N 46°14' W 002°30'3 1.1
2017-Nov-15 20:43N 46°14' W 002°34'1 4.0
2017-Nov-15 20:27N 46°14' W 002°32'1 1.7
2017-Nov-15 19:40N 46°14' W 002°34'1 3.9
2017-Nov-15 19:30N 46°14' W 002°33'3 5.8
2017-Nov-15 18:59N 46°13' W 002°29'5 9.2
2017-Nov-15 18:29N 46°12' W 002°22'8 2.3
2017-Nov-15 14:57N 46°19' W 002°16'1 2.7
2017-Nov-15 14:29N 46°18' W 002°14'1 2.9
2017-Nov-15 14:00N 46°16' W 002°14'2 3.0
2017-Nov-15 13:27N 46°15' W 002°14'1 3.0
2017-Nov-15 13:00N 46°13' W 002°14'2 3.0
2017-Nov-15 12:27N 46°12' W 002°14'1 2.0
2017-Nov-15 11:55N 46°11' W 002°14'1 1.9
2017-Nov-15 11:25N 46°11' W 002°15'1 3.0
2017-Nov-15 11:00N 46°11' W 002°17'2 2.4
2017-Nov-15 10:17N 46°12' W 002°18'2 3.3
2017-Nov-15 09:43N 46°14' W 002°17'1 3.1
2017-Nov-15 09:30N 46°15' W 002°17'3 3.0
2017-Nov-15 08:23N 46°18' W 002°19'1 3.0
2017-Nov-15 08:00N 46°19' W 002°19'2 3.2
2017-Nov-15 07:30N 46°21' W 002°18'2 3.2
2017-Nov-15 06:58N 46°22' W 002°16'2 3.3
2017-Nov-15 06:23N 46°24' W 002°15'3 5.4
2017-Nov-15 05:54N 46°26' W 002°13'3 8.6
2017-Nov-15 05:30N 46°29' W 002°10'5 9.0
2017-Nov-15 05:00N 46°32' W 002°07'4 8.9
2017-Nov-15 04:30N 46°36' W 002°03'4 8.7
2017-Nov-15 04:00N 46°40' W 001°59'3 4.6
2017-Nov-15 03:25N 46°42' W 001°56'0 0.3
2017-Nov-15 03:00N 46°42' W 001°57'4 8.3
2017-Nov-15 02:30N 46°39' W 002°01'4 8.9
2017-Nov-15 02:00N 46°35' W 002°05'4 8.7
2017-Nov-15 01:30N 46°32' W 002°08'4 8.7
2017-Nov-15 01:00N 46°28' W 002°12'5 8.8
2017-Nov-15 00:28N 46°25' W 002°17'4 8.8
2017-Nov-14 23:59N 46°21' W 002°20'7 9.0
2017-Nov-14 23:15N 46°16' W 002°27'8 1.0
2017-Nov-14 14:52N 46°19' W 002°15'1 2.9
2017-Nov-14 14:27N 46°18' W 002°14'3 0.7
2017-Nov-14 09:36N 46°15' W 002°17'6 3.0
2017-Nov-14 07:38N 46°21' W 002°18'2 3.1
2017-Nov-14 07:03N 46°22' W 002°16'0 3.1
2017-Nov-14 06:56N 46°23' W 002°16'2 3.4
2017-Nov-14 06:26N 46°24' W 002°15'3 5.7
2017-Nov-14 05:59N 46°26' W 002°13'4 8.6
2017-Nov-14 05:30N 46°30' W 002°09'4 8.7
2017-Nov-14 05:00N 46°33' W 002°06'4 8.6
2017-Nov-14 04:30N 46°37' W 002°02'4 8.4
2017-Nov-14 04:00N 46°40' W 001°58'2 3.9
2017-Nov-14 03:30N 46°42' W 001°56'0 0.7
2017-Nov-14 03:00N 46°42' W 001°57'4 8.5
2017-Nov-14 02:30N 46°38' W 002°01'4 8.7
2017-Nov-14 02:00N 46°35' W 002°05'4 8.6
2017-Nov-14 01:30N 46°32' W 002°09'4 8.5
2017-Nov-14 01:00N 46°29' W 002°13'6 8.6
2017-Nov-14 00:15N 46°24' W 002°19'  
Track history (hours):
 
Tides and Currents Weather Stations Pressure Air Temp Water Temp Dewpoint Dewpoint Depression Visibility Wind Speed Wind Dir Waves Ship Positions

F/V Le Natif 2

Last reported at 2017-Nov-23 05:30 UTC. Time now 2017-Nov-23 20:47 UTC.
Position N 46°42' W 001°57'.

Length 16 m.

Type: Fishing. MMSI: 228131600.

Date/timePositionNaut miles runAvg speedWind from/ knotsBaromVisibWave heightAir tempDewpointWater temp
2017-Nov-23 05:30N 46°42' W 001°57'0 0.0
2017-Nov-23 05:00N 46°42' W 001°57'0 0.2
2017-Nov-23 04:29N 46°42' W 001°57'0 0.0
2017-Nov-23 03:57N 46°42' W 001°56'1 1.1
2017-Nov-23 03:30N 46°42' W 001°57'4 8.7
2017-Nov-23 03:00N 46°38' W 002°01'5 9.2
2017-Nov-23 02:31N 46°35' W 002°06'5 9.2
2017-Nov-23 02:00N 46°31' W 002°10'5 9.5
2017-Nov-23 01:30N 46°28' W 002°15'5 9.4
2017-Nov-23 00:57N 46°24' W 002°20'13 3.2
2017-Nov-22 20:47N 46°13' W 002°32'1 3.3
2017-Nov-22 20:30N 46°13' W 002°33'4 3.7
2017-Nov-22 19:20N 46°17' W 002°31'  
2017-Nov-20 00:30N 46°28' W 002°16'5 0.5
2017-Nov-19 13:10N 46°33' W 002°18'1 3.4
2017-Nov-19 12:57N 46°33' W 002°18'2 3.2
2017-Nov-19 12:26N 46°31' W 002°17'1 3.1
2017-Nov-19 12:00N 46°30' W 002°16'1 1.6
2017-Nov-19 11:30N 46°30' W 002°18'2 3.3
2017-Nov-19 10:59N 46°28' W 002°19'6 1.4
2017-Nov-19 07:01N 46°34' W 002°22'0 3.4
2017-Nov-19 06:55N 46°34' W 002°22'1 3.4
2017-Nov-19 06:30N 46°35' W 002°21'2 3.4
2017-Nov-19 06:00N 46°36' W 002°19'2 3.7
2017-Nov-19 05:30N 46°36' W 002°16'4 8.0
2017-Nov-19 05:00N 46°38' W 002°11'4 8.6
2017-Nov-19 04:30N 46°39' W 002°05'4 8.6
2017-Nov-19 04:00N 46°41' W 001°59'2 3.6
2017-Nov-19 03:28N 46°42' W 001°57'0 0.0
2017-Nov-17 18:07N 46°42' W 001°57'0 0.0
2017-Nov-17 18:00N 46°42' W 001°57'0 0.0
2017-Nov-17 17:30N 46°42' W 001°57'0 0.0
2017-Nov-17 17:00N 46°42' W 001°57'0 0.0
2017-Nov-17 16:30N 46°42' W 001°57'0 0.0
2017-Nov-17 16:00N 46°42' W 001°57'0 0.0
2017-Nov-17 15:02N 46°42' W 001°57'0 0.2
2017-Nov-17 15:00N 46°42' W 001°57'0 0.0
2017-Nov-17 14:29N 46°42' W 001°57'0 0.0
2017-Nov-17 14:00N 46°42' W 001°57'0 0.0
2017-Nov-17 12:14N 46°42' W 001°57'0 0.0
2017-Nov-17 11:59N 46°42' W 001°57'0 0.0
2017-Nov-17 11:30N 46°42' W 001°57'0 0.0
2017-Nov-17 11:00N 46°42' W 001°57'0 0.0
2017-Nov-17 10:30N 46°42' W 001°57'0 0.0
2017-Nov-17 10:00N 46°42' W 001°57'0 0.0
2017-Nov-17 05:29N 46°42' W 001°57'0 0.0
2017-Nov-17 05:00N 46°42' W 001°57'0 0.0
2017-Nov-17 04:30N 46°42' W 001°57'0 0.0
2017-Nov-17 04:00N 46°42' W 001°57'0 0.0
2017-Nov-17 03:30N 46°42' W 001°57'0 0.2
2017-Nov-17 03:00N 46°42' W 001°57'4 7.7
2017-Nov-17 02:30N 46°39' W 002°01'4 8.8
2017-Nov-17 02:00N 46°37' W 002°06'5 9.3
2017-Nov-17 01:30N 46°34' W 002°11'4 8.4
2017-Nov-17 01:00N 46°31' W 002°16'4 8.9
2017-Nov-17 00:30N 46°28' W 002°21'4 8.9
2017-Nov-17 00:00N 46°26' W 002°26'5 9.0
2017-Nov-16 23:30N 46°23' W 002°31'4 8.6
2017-Nov-16 23:00N 46°20' W 002°36'1 1.8
2017-Nov-16 22:20N 46°19' W 002°36'1 4.4
2017-Nov-16 22:00N 46°17' W 002°36'1 0.8
2017-Nov-16 20:48N 46°17' W 002°37'1 3.0
2017-Nov-16 20:30N 46°17' W 002°36'1 0.6
2017-Nov-16 19:20N 46°17' W 002°37'2 5.3
2017-Nov-16 18:54N 46°18' W 002°34'4 9.3
2017-Nov-16 18:30N 46°21' W 002°30'3 6.6
2017-Nov-16 18:00N 46°23' W 002°26'1 2.2
2017-Nov-16 17:24N 46°22' W 002°25'1 3.3
2017-Nov-16 17:00N 46°21' W 002°24'2 3.2
2017-Nov-16 16:19N 46°19' W 002°21'1 3.2
2017-Nov-16 16:00N 46°18' W 002°21'2 3.2
2017-Nov-16 15:30N 46°17' W 002°19'2 3.2
2017-Nov-16 14:59N 46°15' W 002°18'5 3.0
2017-Nov-16 13:28N 46°11' W 002°18'2 3.6
2017-Nov-16 12:59N 46°09' W 002°18'1 2.4
2017-Nov-16 12:30N 46°08' W 002°18'0 0.4
2017-Nov-16 11:59N 46°08' W 002°18'3 2.2
2017-Nov-16 10:47N 46°11' W 002°18'2 2.9
2017-Nov-16 10:10N 46°12' W 002°17'1 3.0
2017-Nov-16 09:47N 46°14' W 002°17'1 3.1
2017-Nov-16 09:30N 46°15' W 002°17'2 3.1
2017-Nov-16 08:44N 46°17' W 002°19'1 2.9
2017-Nov-16 08:13N 46°18' W 002°19'1 3.1
2017-Nov-16 08:00N 46°19' W 002°19'2 3.2
2017-Nov-16 07:30N 46°20' W 002°18'2 3.4
2017-Nov-16 07:00N 46°22' W 002°17'2 3.6
2017-Nov-16 06:29N 46°23' W 002°16'4 7.2
2017-Nov-16 05:56N 46°27' W 002°12'4 8.9
2017-Nov-16 05:30N 46°30' W 002°09'4 8.9
2017-Nov-16 05:00N 46°34' W 002°06'4 8.7
2017-Nov-16 04:30N 46°37' W 002°02'4 8.3
2017-Nov-16 04:00N 46°40' W 001°59'2 3.8
2017-Nov-16 03:30N 46°42' W 001°56'1 2.2
2017-Nov-16 03:00N 46°41' W 001°58'4 9.0
2017-Nov-16 02:30N 46°38' W 002°02'510.0
2017-Nov-16 02:00N 46°34' W 002°06'4 7.7
2017-Nov-16 01:30N 46°31' W 002°10'4 8.7
2017-Nov-16 01:00N 46°27' W 002°14'4 8.8
2017-Nov-16 00:30N 46°24' W 002°18'4 8.8
2017-Nov-16 00:00N 46°21' W 002°22'8 8.8
2017-Nov-15 23:09N 46°15' W 002°29'1 4.5
2017-Nov-15 23:00N 46°14' W 002°30'3 1.1
2017-Nov-15 20:43N 46°14' W 002°34'1 4.0
2017-Nov-15 20:27N 46°14' W 002°32'1 1.7
2017-Nov-15 19:40N 46°14' W 002°34'1 3.9
2017-Nov-15 19:30N 46°14' W 002°33'3 5.8
2017-Nov-15 18:59N 46°13' W 002°29'5 9.2
2017-Nov-15 18:29N 46°12' W 002°22'8 2.3
2017-Nov-15 14:57N 46°19' W 002°16'1 2.7
2017-Nov-15 14:29N 46°18' W 002°14'1 2.9
2017-Nov-15 14:00N 46°16' W 002°14'2 3.0
2017-Nov-15 13:27N 46°15' W 002°14'1 3.0
2017-Nov-15 13:00N 46°13' W 002°14'2 3.0
2017-Nov-15 12:27N 46°12' W 002°14'1 2.0
2017-Nov-15 11:55N 46°11' W 002°14'1 1.9
2017-Nov-15 11:25N 46°11' W 002°15'1 3.0
2017-Nov-15 11:00N 46°11' W 002°17'2 2.4
2017-Nov-15 10:17N 46°12' W 002°18'2 3.3
2017-Nov-15 09:43N 46°14' W 002°17'1 3.1
2017-Nov-15 09:30N 46°15' W 002°17'3 3.0
2017-Nov-15 08:23N 46°18' W 002°19'1 3.0
2017-Nov-15 08:00N 46°19' W 002°19'2 3.2
2017-Nov-15 07:30N 46°21' W 002°18'2 3.2
2017-Nov-15 06:58N 46°22' W 002°16'2 3.3
2017-Nov-15 06:23N 46°24' W 002°15'3 5.4
2017-Nov-15 05:54N 46°26' W 002°13'3 8.6
2017-Nov-15 05:30N 46°29' W 002°10'5 9.0
2017-Nov-15 05:00N 46°32' W 002°07'4 8.9
2017-Nov-15 04:30N 46°36' W 002°03'4 8.7
2017-Nov-15 04:00N 46°40' W 001°59'3 4.6
2017-Nov-15 03:25N 46°42' W 001°56'0 0.3
2017-Nov-15 03:00N 46°42' W 001°57'4 8.3
2017-Nov-15 02:30N 46°39' W 002°01'4 8.9
2017-Nov-15 02:00N 46°35' W 002°05'4 8.7
2017-Nov-15 01:30N 46°32' W 002°08'4 8.7
2017-Nov-15 01:00N 46°28' W 002°12'5 8.8
2017-Nov-15 00:28N 46°25' W 002°17'4 8.8
2017-Nov-14 23:59N 46°21' W 002°20'7 9.0
2017-Nov-14 23:15N 46°16' W 002°27'8 1.0
2017-Nov-14 14:52N 46°19' W 002°15'1 2.9
2017-Nov-14 14:27N 46°18' W 002°14'3 0.7
2017-Nov-14 09:36N 46°15' W 002°17'6 3.0
2017-Nov-14 07:38N 46°21' W 002°18'2 3.1
2017-Nov-14 07:03N 46°22' W 002°16'0 3.1
2017-Nov-14 06:56N 46°23' W 002°16'2 3.4
2017-Nov-14 06:26N 46°24' W 002°15'3 5.7
2017-Nov-14 05:59N 46°26' W 002°13'4 8.6
2017-Nov-14 05:30N 46°30' W 002°09'4 8.7
2017-Nov-14 05:00N 46°33' W 002°06'4 8.6
2017-Nov-14 04:30N 46°37' W 002°02'4 8.4
2017-Nov-14 04:00N 46°40' W 001°58'2 3.9
2017-Nov-14 03:30N 46°42' W 001°56'0 0.7
2017-Nov-14 03:00N 46°42' W 001°57'4 8.5
2017-Nov-14 02:30N 46°38' W 002°01'4 8.7
2017-Nov-14 02:00N 46°35' W 002°05'4 8.6
2017-Nov-14 01:30N 46°32' W 002°09'4 8.5
2017-Nov-14 01:00N 46°29' W 002°13'6 8.6
2017-Nov-14 00:15N 46°24' W 002°19'  

Dump ship's entire track history